createdAt,value
2023-05-09T00:00:06.178Z,13.72
2023-05-09T00:01:06.132Z,13.71
2023-05-09T00:02:06.229Z,13.70
2023-05-09T00:03:06.252Z,13.71
2023-05-09T00:04:09.139Z,13.71
2023-05-09T00:05:09.089Z,13.67
2023-05-09T00:06:06.065Z,13.67
2023-05-09T00:07:06.052Z,13.67
2023-05-09T00:08:06.057Z,13.65
2023-05-09T00:09:06.050Z,13.63
2023-05-09T00:10:06.009Z,13.60
2023-05-09T00:11:06.036Z,13.57
2023-05-09T00:12:06.008Z,13.57
2023-05-09T00:13:06.221Z,13.56
2023-05-09T00:14:05.956Z,13.56
2023-05-09T00:15:05.969Z,13.54
2023-05-09T00:16:05.999Z,13.56
2023-05-09T00:17:05.927Z,13.52
2023-05-09T00:18:05.932Z,13.53
2023-05-09T00:19:05.909Z,13.52
2023-05-09T00:20:05.882Z,13.50
2023-05-09T00:21:05.893Z,13.47
2023-05-09T00:22:05.862Z,13.46
2023-05-09T00:23:05.835Z,13.42
2023-05-09T00:24:08.852Z,13.41
2023-05-09T00:25:08.856Z,13.37
2023-05-09T00:26:05.788Z,13.37
2023-05-09T00:27:05.801Z,13.33
2023-05-09T00:28:05.761Z,13.30
2023-05-09T00:29:05.761Z,13.30
2023-05-09T00:30:05.789Z,13.30
2023-05-09T00:31:05.750Z,13.27
2023-05-09T00:32:05.814Z,13.28
2023-05-09T00:33:05.718Z,13.30
2023-05-09T00:34:05.686Z,13.30
2023-05-09T00:35:05.664Z,13.28
2023-05-09T00:36:05.706Z,13.25
2023-05-09T00:37:05.653Z,13.20
2023-05-09T00:38:05.620Z,13.22
2023-05-09T00:39:05.629Z,13.19
2023-05-09T00:40:05.696Z,13.20
2023-05-09T00:41:05.580Z,13.18
2023-05-09T00:42:05.592Z,13.19
2023-05-09T00:43:05.577Z,13.18
2023-05-09T00:44:08.588Z,13.18
2023-05-09T00:45:08.535Z,13.16
2023-05-09T00:46:05.621Z,13.16
2023-05-09T00:47:05.523Z,13.13
2023-05-09T00:48:05.532Z,13.13
2023-05-09T00:49:05.525Z,13.11
2023-05-09T00:50:05.481Z,13.11
2023-05-09T00:51:05.501Z,13.05
2023-05-09T00:52:05.542Z,13.04
2023-05-09T00:53:05.454Z,13.01
2023-05-09T00:54:07.619Z,13.00
2023-05-09T00:55:05.438Z,13.01
2023-05-09T00:56:05.392Z,13.03
2023-05-09T00:57:05.440Z,13.03
2023-05-09T00:58:05.362Z,13.04
2023-05-09T00:59:05.361Z,13.04
2023-05-09T01:00:05.336Z,13.03
2023-05-09T01:01:05.449Z,13.01
2023-05-09T01:02:05.380Z,12.98
2023-05-09T01:03:05.360Z,12.97
2023-05-09T01:04:08.300Z,12.97
2023-05-09T01:05:08.306Z,12.95
2023-05-09T01:06:05.250Z,12.97
2023-05-09T01:07:05.235Z,12.94
2023-05-09T01:08:05.229Z,12.94
2023-05-09T01:09:05.218Z,12.94
2023-05-09T01:10:05.199Z,12.93
2023-05-09T01:11:05.176Z,12.90
2023-05-09T01:12:05.177Z,12.90
2023-05-09T01:13:05.206Z,12.87
2023-05-09T01:14:05.176Z,12.90
2023-05-09T01:15:05.122Z,12.90
2023-05-09T01:16:05.149Z,12.87
2023-05-09T01:17:05.087Z,12.86
2023-05-09T01:18:05.140Z,12.87
2023-05-09T01:19:05.070Z,12.86
2023-05-09T01:20:05.053Z,12.86
2023-05-09T01:21:05.064Z,12.87
2023-05-09T01:22:05.031Z,12.85
2023-05-09T01:23:05.001Z,12.82
2023-05-09T01:24:08.000Z,12.82
2023-05-09T01:25:08.001Z,12.80
2023-05-09T01:26:04.970Z,12.79
2023-05-09T01:27:04.954Z,12.78
2023-05-09T01:28:04.964Z,12.76
2023-05-09T01:29:04.936Z,12.72
2023-05-09T01:30:04.952Z,12.73
2023-05-09T01:31:04.924Z,12.72
2023-05-09T01:32:04.891Z,12.70
2023-05-09T01:33:04.957Z,12.68
2023-05-09T01:34:04.910Z,12.65
2023-05-09T01:35:04.840Z,12.65
2023-05-09T01:36:04.826Z,12.64
2023-05-09T01:37:04.822Z,12.60
2023-05-09T01:38:04.801Z,12.57
2023-05-09T01:39:04.790Z,12.55
2023-05-09T01:40:04.804Z,12.54
2023-05-09T01:41:04.785Z,12.54
2023-05-09T01:42:04.752Z,12.54
2023-05-09T01:43:04.751Z,12.50
2023-05-09T01:44:07.755Z,12.53
2023-05-09T01:45:07.756Z,12.53
2023-05-09T01:46:04.694Z,12.54
2023-05-09T01:47:04.682Z,12.54
2023-05-09T01:48:04.698Z,12.55
2023-05-09T01:49:04.662Z,12.50
2023-05-09T01:50:04.667Z,12.53
2023-05-09T01:51:04.647Z,12.50
2023-05-09T01:52:04.617Z,12.50
2023-05-09T01:53:04.592Z,12.49
2023-05-09T01:54:04.582Z,12.53
2023-05-09T01:55:04.617Z,12.47
2023-05-09T01:56:04.556Z,12.45
2023-05-09T01:57:04.598Z,12.39
2023-05-09T01:58:04.558Z,12.37
2023-05-09T01:59:04.522Z,12.36
2023-05-09T02:00:04.509Z,12.35
2023-05-09T02:01:04.521Z,12.32
2023-05-09T02:02:04.531Z,12.31
2023-05-09T02:03:04.532Z,12.27
2023-05-09T02:04:07.448Z,12.22
2023-05-09T02:05:07.445Z,12.22
2023-05-09T02:06:04.410Z,12.20
2023-05-09T02:07:04.474Z,12.18
2023-05-09T02:08:04.381Z,12.15
2023-05-09T02:09:04.396Z,12.12
2023-05-09T02:10:04.366Z,12.12
2023-05-09T02:11:04.347Z,12.09
2023-05-09T02:12:04.351Z,12.07
2023-05-09T02:13:04.366Z,12.04
2023-05-09T02:14:04.306Z,12.04
2023-05-09T02:15:04.307Z,12.00
2023-05-09T02:16:04.277Z,12.00
2023-05-09T02:17:04.312Z,11.99
2023-05-09T02:18:04.320Z,11.95
2023-05-09T02:19:04.252Z,11.90
2023-05-09T02:20:04.216Z,11.87
2023-05-09T02:21:04.246Z,11.86
2023-05-09T02:22:04.199Z,11.83
2023-05-09T02:23:04.187Z,11.81
2023-05-09T02:24:07.191Z,11.81
2023-05-09T02:25:07.158Z,11.78
2023-05-09T02:26:04.132Z,11.77
2023-05-09T02:27:04.128Z,11.75
2023-05-09T02:28:04.143Z,11.73
2023-05-09T02:29:04.114Z,11.72
2023-05-09T02:30:04.070Z,11.72
2023-05-09T02:31:04.067Z,11.70
2023-05-09T02:32:04.144Z,11.72
2023-05-09T02:33:04.118Z,11.70
2023-05-09T02:34:04.069Z,11.72
2023-05-09T02:35:04.053Z,11.70
2023-05-09T02:36:03.994Z,11.69
2023-05-09T02:37:03.978Z,11.66
2023-05-09T02:38:03.981Z,11.68
2023-05-09T02:39:04.021Z,11.68
2023-05-09T02:40:03.938Z,11.66
2023-05-09T02:41:03.934Z,11.66
2023-05-09T02:42:03.918Z,11.69
2023-05-09T02:43:03.900Z,11.66
2023-05-09T02:44:06.962Z,11.66
2023-05-09T02:45:06.872Z,11.66
2023-05-09T02:46:03.881Z,11.63
2023-05-09T02:47:03.853Z,11.60
2023-05-09T02:48:05.666Z,11.62
2023-05-09T02:49:03.821Z,11.57
2023-05-09T02:50:03.870Z,11.57
2023-05-09T02:51:03.780Z,11.57
2023-05-09T02:52:03.786Z,11.55
2023-05-09T02:53:03.767Z,11.55
2023-05-09T02:54:03.744Z,11.57
2023-05-09T02:55:03.726Z,11.59
2023-05-09T02:56:03.760Z,11.57
2023-05-09T02:57:03.689Z,11.57
2023-05-09T02:58:13.517Z,11.59
2023-05-09T02:59:04.661Z,11.59
2023-05-09T03:00:03.670Z,11.59
2023-05-09T03:01:03.708Z,11.57
2023-05-09T03:02:03.617Z,11.59
2023-05-09T03:03:03.671Z,11.55
2023-05-09T03:04:06.612Z,11.54
2023-05-09T03:05:06.616Z,11.51
2023-05-09T03:06:03.614Z,11.50
2023-05-09T03:07:03.574Z,11.47
2023-05-09T03:08:03.558Z,11.47
2023-05-09T03:09:03.627Z,11.47
2023-05-09T03:10:03.538Z,11.45
2023-05-09T03:11:03.491Z,11.48
2023-05-09T03:12:03.523Z,11.47
2023-05-09T03:13:03.509Z,11.45
2023-05-09T03:14:03.491Z,11.47
2023-05-09T03:15:03.436Z,11.47
2023-05-09T03:16:03.511Z,11.47
2023-05-09T03:17:03.412Z,11.45
2023-05-09T03:18:03.488Z,11.47
2023-05-09T03:19:03.370Z,11.44
2023-05-09T03:20:04.416Z,11.44
2023-05-09T03:21:03.386Z,11.44
2023-05-09T03:22:03.339Z,11.41
2023-05-09T03:23:03.325Z,11.40
2023-05-09T03:24:06.451Z,11.36
2023-05-09T03:25:06.319Z,11.35
2023-05-09T03:26:03.325Z,11.36
2023-05-09T03:27:03.327Z,11.35
2023-05-09T03:28:03.245Z,11.35
2023-05-09T03:29:03.229Z,11.33
2023-05-09T03:30:03.251Z,11.33
2023-05-09T03:31:03.240Z,11.30
2023-05-09T03:32:03.207Z,11.27
2023-05-09T03:33:03.209Z,11.27
2023-05-09T03:34:03.186Z,11.29
2023-05-09T03:35:03.145Z,11.26
2023-05-09T03:36:03.139Z,11.26
2023-05-09T03:37:03.137Z,11.25
2023-05-09T03:38:03.147Z,11.22
2023-05-09T03:39:03.101Z,11.22
2023-05-09T03:40:03.138Z,11.23
2023-05-09T03:41:03.061Z,11.22
2023-05-09T03:42:03.043Z,11.19
2023-05-09T03:43:03.042Z,11.17
2023-05-09T03:44:06.014Z,11.15
2023-05-09T03:45:06.052Z,11.15
2023-05-09T03:46:02.982Z,11.19
2023-05-09T03:47:03.111Z,11.18
2023-05-09T03:48:03.066Z,11.19
2023-05-09T03:49:02.978Z,11.17
2023-05-09T03:50:02.931Z,11.17
2023-05-09T03:51:02.934Z,11.18
2023-05-09T03:52:02.910Z,11.17
2023-05-09T03:53:02.881Z,11.17
2023-05-09T03:54:02.877Z,11.19
2023-05-09T03:55:02.909Z,11.22
2023-05-09T03:56:02.876Z,11.25
2023-05-09T03:57:02.858Z,11.26
2023-05-09T03:58:02.821Z,11.29
2023-05-09T03:59:02.795Z,11.27
2023-05-09T04:00:02.807Z,11.30
2023-05-09T04:01:02.803Z,11.29
2023-05-09T04:02:02.827Z,11.30
2023-05-09T04:03:02.841Z,11.32
2023-05-09T04:04:05.772Z,11.32
2023-05-09T04:05:05.737Z,11.33
2023-05-09T04:06:02.721Z,11.36
2023-05-09T04:07:02.684Z,11.37
2023-05-09T04:08:02.695Z,11.45
2023-05-09T04:09:02.668Z,11.45
2023-05-09T04:10:02.653Z,11.45
2023-05-09T04:11:02.651Z,11.50
2023-05-09T04:12:02.648Z,11.52
2023-05-09T04:13:02.684Z,11.52
2023-05-09T04:14:02.597Z,11.51
2023-05-09T04:15:02.582Z,11.52
2023-05-09T04:16:02.558Z,11.52
2023-05-09T04:17:02.762Z,11.55
2023-05-09T04:18:02.594Z,11.59
2023-05-09T04:19:02.515Z,11.60
2023-05-09T04:20:02.515Z,11.65
2023-05-09T04:21:02.497Z,11.70
2023-05-09T04:22:02.476Z,11.78
2023-05-09T04:23:02.493Z,12.04
2023-05-09T04:24:05.463Z,12.43
2023-05-09T04:25:05.419Z,12.82
2023-05-09T04:26:02.414Z,13.18
2023-05-09T04:27:02.419Z,13.37
2023-05-09T04:28:02.458Z,13.56
2023-05-09T04:29:02.370Z,13.57
2023-05-09T04:30:02.388Z,13.47
2023-05-09T04:31:02.443Z,13.35
2023-05-09T04:32:02.525Z,13.16
2023-05-09T04:33:02.455Z,13.13
2023-05-09T04:34:02.302Z,13.18
2023-05-09T04:35:02.308Z,13.30
2023-05-09T04:36:02.308Z,13.56
2023-05-09T04:37:02.258Z,13.90
2023-05-09T04:38:02.248Z,14.18
2023-05-09T04:39:02.265Z,14.40
2023-05-09T04:40:02.231Z,14.63
2023-05-09T04:41:02.222Z,14.32
2023-05-09T04:42:02.203Z,14.22
2023-05-09T04:43:02.218Z,14.44
2023-05-09T04:44:05.181Z,14.85
2023-05-09T04:45:05.180Z,15.09
2023-05-09T04:46:02.195Z,15.44
2023-05-09T04:47:02.151Z,15.73
2023-05-09T04:48:02.150Z,16.00
2023-05-09T04:49:02.101Z,16.21
2023-05-09T04:50:02.112Z,16.64
2023-05-09T04:51:02.096Z,17.09
2023-05-09T04:52:02.055Z,17.49
2023-05-09T04:53:02.041Z,17.56
2023-05-09T04:54:02.061Z,17.70
2023-05-09T04:55:02.012Z,17.59
2023-05-09T04:56:02.050Z,17.76
2023-05-09T04:57:13.688Z,17.94
2023-05-09T04:58:03.094Z,18.15
2023-05-09T04:59:01.959Z,18.15
2023-05-09T05:00:01.966Z,18.13
2023-05-09T05:01:01.937Z,18.00
2023-05-09T05:02:02.068Z,18.13
2023-05-09T05:03:01.941Z,18.28
2023-05-09T05:04:04.901Z,18.29
2023-05-09T05:05:11.483Z,18.35
2023-05-09T05:06:02.901Z,18.40
2023-05-09T05:07:01.858Z,18.45
2023-05-09T05:08:01.861Z,18.22
2023-05-09T05:09:01.833Z,17.82
2023-05-09T05:10:01.806Z,17.56
2023-05-09T05:11:01.796Z,17.74
2023-05-09T05:12:03.713Z,18.20
2023-05-09T05:13:01.793Z,18.66
2023-05-09T05:14:01.779Z,18.88
2023-05-09T05:15:01.740Z,19.24
2023-05-09T05:16:01.779Z,19.11
2023-05-09T05:17:01.714Z,18.90
2023-05-09T05:18:01.733Z,19.04
2023-05-09T05:19:01.740Z,19.07
2023-05-09T05:20:01.661Z,19.19
2023-05-09T05:21:01.643Z,19.24
2023-05-09T05:22:01.639Z,19.44
2023-05-09T05:23:01.626Z,19.47
2023-05-09T05:24:04.628Z,18.95
2023-05-09T05:25:04.607Z,19.09
2023-05-09T05:26:01.614Z,19.30
2023-05-09T05:27:01.561Z,19.44
2023-05-09T05:28:01.556Z,19.66
2023-05-09T05:29:01.539Z,19.84
2023-05-09T05:30:01.564Z,19.81
2023-05-09T05:31:01.519Z,19.81
2023-05-09T05:32:01.553Z,19.55
2023-05-09T05:33:01.550Z,19.70
2023-05-09T05:34:01.494Z,19.86
2023-05-09T05:35:01.454Z,20.00
2023-05-09T05:36:01.473Z,19.94
2023-05-09T05:37:01.436Z,19.79
2023-05-09T05:38:01.416Z,19.37
2023-05-09T05:39:01.438Z,19.39
2023-05-09T05:40:01.406Z,19.08
2023-05-09T05:41:01.372Z,18.62
2023-05-09T05:42:01.374Z,18.71
2023-05-09T05:43:01.353Z,18.74
2023-05-09T05:44:04.387Z,18.63
2023-05-09T05:45:04.346Z,18.60
2023-05-09T05:46:01.385Z,18.50
2023-05-09T05:47:01.291Z,18.22
2023-05-09T05:48:01.319Z,18.05
2023-05-09T05:49:01.260Z,17.68
2023-05-09T05:50:01.308Z,17.23
2023-05-09T05:51:01.231Z,16.97
2023-05-09T05:52:01.243Z,16.99
2023-05-09T05:53:01.230Z,17.01
2023-05-09T05:54:01.208Z,17.34
2023-05-09T05:55:01.172Z,17.64
2023-05-09T05:56:01.218Z,17.76
2023-05-09T05:57:01.155Z,17.87
2023-05-09T05:58:01.158Z,17.79
2023-05-09T05:59:01.117Z,17.87
2023-05-09T06:00:01.122Z,17.71
2023-05-09T06:01:01.120Z,17.97
2023-05-09T06:02:01.124Z,18.22
2023-05-09T06:03:01.184Z,18.18
2023-05-09T06:04:04.169Z,17.76
2023-05-09T06:05:04.042Z,17.26
2023-05-09T06:06:01.063Z,16.89
2023-05-09T06:07:01.055Z,16.78
2023-05-09T06:08:00.996Z,16.69
2023-05-09T06:09:00.984Z,16.61
2023-05-09T06:10:00.966Z,16.43
2023-05-09T06:11:00.974Z,16.42
2023-05-09T06:12:00.969Z,16.53
2023-05-09T06:13:00.996Z,16.60
2023-05-09T06:14:00.950Z,16.65
2023-05-09T06:15:00.891Z,16.71
2023-05-09T06:16:15.201Z,16.83
2023-05-09T06:17:01.985Z,16.83
2023-05-09T06:18:00.905Z,16.76
2023-05-09T06:19:00.860Z,16.54
2023-05-09T06:20:00.822Z,16.41
2023-05-09T06:21:00.812Z,16.28
2023-05-09T06:22:00.810Z,16.16
2023-05-09T06:23:00.857Z,16.08
2023-05-09T06:24:11.836Z,15.88
2023-05-09T06:25:04.775Z,15.80
2023-05-09T06:26:00.733Z,15.92
2023-05-09T06:27:00.725Z,15.94
2023-05-09T06:28:00.730Z,15.98
2023-05-09T06:29:00.794Z,15.97
2023-05-09T06:30:02.784Z,15.88
2023-05-09T06:31:01.707Z,15.83
2023-05-09T06:32:00.683Z,15.70
2023-05-09T06:33:00.680Z,15.73
2023-05-09T06:34:00.684Z,15.76
2023-05-09T06:35:00.639Z,15.75
2023-05-09T06:36:00.593Z,15.72
2023-05-09T06:37:00.644Z,15.68
2023-05-09T06:38:00.592Z,15.72
2023-05-09T06:39:00.564Z,15.65
2023-05-09T06:40:00.548Z,15.70
2023-05-09T06:41:00.541Z,15.79
2023-05-09T06:42:00.505Z,15.86
2023-05-09T06:43:00.524Z,15.94
2023-05-09T06:44:03.484Z,16.00
2023-05-09T06:45:03.525Z,16.01
2023-05-09T06:46:00.478Z,16.04
2023-05-09T06:47:00.464Z,15.94
2023-05-09T06:48:00.450Z,16.00
2023-05-09T06:49:00.420Z,15.98
2023-05-09T06:50:00.449Z,16.02
2023-05-09T06:51:00.383Z,16.04
2023-05-09T06:52:00.372Z,16.08
2023-05-09T06:53:00.360Z,16.16
2023-05-09T06:54:00.389Z,16.28
2023-05-09T06:55:00.321Z,16.39
2023-05-09T06:56:00.340Z,16.46
2023-05-09T06:57:00.300Z,16.54
2023-05-09T06:58:00.283Z,16.56
2023-05-09T06:59:00.293Z,16.51
2023-05-09T07:00:00.303Z,16.51
2023-05-09T07:01:00.243Z,16.47
2023-05-09T07:02:00.308Z,16.46
2023-05-09T07:03:00.275Z,16.54
2023-05-09T07:04:03.206Z,16.64
2023-05-09T07:05:03.266Z,16.66
2023-05-09T07:06:00.172Z,16.74
2023-05-09T07:07:00.152Z,16.75
2023-05-09T07:08:00.168Z,16.81
2023-05-09T07:09:00.145Z,16.84
2023-05-09T07:10:10.376Z,16.91
2023-05-09T07:11:01.136Z,16.87
2023-05-09T07:12:00.104Z,16.84
2023-05-09T07:13:00.166Z,16.89
2023-05-09T07:14:00.119Z,16.96
2023-05-09T07:15:00.072Z,16.96
2023-05-09T07:16:00.066Z,16.97
2023-05-09T07:17:13.768Z,16.86
2023-05-09T07:18:01.047Z,16.83
2023-05-09T07:18:59.989Z,16.76
2023-05-09T07:20:00.011Z,16.68
2023-05-09T07:20:59.992Z,16.57
2023-05-09T07:21:59.952Z,16.69
2023-05-09T07:23:00.065Z,16.69
2023-05-09T07:24:02.932Z,16.75
2023-05-09T07:25:02.913Z,16.78
2023-05-09T07:26:00.005Z,16.90
2023-05-09T07:26:59.952Z,16.99
2023-05-09T07:27:59.900Z,17.15
2023-05-09T07:28:59.862Z,17.27
2023-05-09T07:29:59.855Z,17.33
2023-05-09T07:30:59.833Z,17.36
2023-05-09T07:31:59.857Z,17.45
2023-05-09T07:32:59.917Z,17.54
2023-05-09T07:33:59.820Z,17.68
2023-05-09T07:34:59.789Z,17.78
2023-05-09T07:35:59.776Z,17.85
2023-05-09T07:36:59.761Z,17.82
2023-05-09T07:37:59.747Z,17.85
2023-05-09T07:38:59.762Z,17.87
2023-05-09T07:39:59.694Z,17.90
2023-05-09T07:40:59.711Z,17.92
2023-05-09T07:41:59.677Z,17.89
2023-05-09T07:42:59.676Z,17.92
2023-05-09T07:44:02.635Z,17.94
2023-05-09T07:45:02.669Z,17.94
2023-05-09T07:45:59.699Z,18.00
2023-05-09T07:46:59.606Z,18.08
2023-05-09T07:47:59.593Z,18.19
2023-05-09T07:48:59.590Z,18.28
2023-05-09T07:49:59.575Z,18.25
2023-05-09T07:50:59.538Z,18.31
2023-05-09T07:51:59.523Z,18.35
2023-05-09T07:52:59.512Z,18.44
2023-05-09T07:53:59.488Z,18.55
2023-05-09T07:54:59.532Z,18.56
2023-05-09T07:55:59.474Z,18.53
2023-05-09T07:56:59.461Z,18.53
2023-05-09T07:57:59.478Z,18.53
2023-05-09T07:58:59.441Z,18.63
2023-05-09T07:59:59.417Z,18.73
2023-05-09T08:00:59.427Z,18.75
2023-05-09T08:01:59.412Z,18.81
2023-05-09T08:02:59.512Z,18.95
2023-05-09T08:04:02.439Z,19.07
2023-05-09T08:05:02.359Z,19.08
2023-05-09T08:05:59.400Z,19.16
2023-05-09T08:06:59.314Z,19.09
2023-05-09T08:07:59.314Z,19.16
2023-05-09T08:08:59.321Z,19.08
2023-05-09T08:09:59.269Z,19.08
2023-05-09T08:10:59.260Z,19.14
2023-05-09T08:11:59.274Z,19.21
2023-05-09T08:12:59.261Z,19.31
2023-05-09T08:13:59.277Z,19.40
2023-05-09T08:14:59.222Z,19.51
2023-05-09T08:15:59.265Z,19.59
2023-05-09T08:16:59.188Z,19.66
2023-05-09T08:17:59.202Z,19.73
2023-05-09T08:18:59.173Z,19.77
2023-05-09T08:19:59.174Z,19.73
2023-05-09T08:20:59.124Z,19.71
2023-05-09T08:21:59.119Z,19.62
2023-05-09T08:22:59.132Z,19.58
2023-05-09T08:24:02.125Z,19.59
2023-05-09T08:25:02.161Z,19.67
2023-05-09T08:25:59.208Z,19.71
2023-05-09T08:26:59.051Z,19.76
2023-05-09T08:27:59.040Z,19.79
2023-05-09T08:28:59.018Z,19.73
2023-05-09T08:29:59.025Z,19.76
2023-05-09T08:30:59.031Z,19.76
2023-05-09T08:31:59.070Z,19.84
2023-05-09T08:32:59.010Z,19.95
2023-05-09T08:33:58.972Z,20.10
2023-05-09T08:34:58.967Z,20.25
2023-05-09T08:35:59.027Z,20.36
2023-05-09T08:36:58.922Z,20.41
2023-05-09T08:37:58.904Z,20.21
2023-05-09T08:38:58.898Z,20.18
2023-05-09T08:39:58.878Z,20.19
2023-05-09T08:40:58.852Z,20.26
2023-05-09T08:41:58.890Z,20.37
2023-05-09T08:42:58.841Z,20.37
2023-05-09T08:44:01.813Z,20.44
2023-05-09T08:45:01.832Z,20.51
2023-05-09T08:45:58.927Z,20.43
2023-05-09T08:46:58.818Z,20.39
2023-05-09T08:47:58.802Z,20.37
2023-05-09T08:48:58.757Z,20.47
2023-05-09T08:49:58.735Z,20.50
2023-05-09T08:50:58.717Z,20.55
2023-05-09T08:51:58.759Z,20.58
2023-05-09T08:52:58.701Z,20.62
2023-05-09T08:53:58.669Z,20.75
2023-05-09T08:54:58.670Z,20.82
2023-05-09T08:55:58.729Z,20.92
2023-05-09T08:56:58.693Z,20.95
2023-05-09T08:57:58.669Z,20.95
2023-05-09T08:58:58.635Z,21.02
2023-05-09T08:59:58.593Z,21.07
2023-05-09T09:00:58.599Z,21.05
2023-05-09T09:01:58.583Z,21.03
2023-05-09T09:02:58.611Z,20.90
2023-05-09T09:04:01.562Z,20.82
2023-05-09T09:05:01.704Z,20.82
2023-05-09T09:05:58.622Z,20.96
2023-05-09T09:06:58.520Z,21.06
2023-05-09T09:07:58.482Z,21.05
2023-05-09T09:08:58.533Z,21.09
2023-05-09T09:09:58.467Z,21.15
2023-05-09T09:10:58.446Z,21.18
2023-05-09T09:11:58.477Z,21.15
2023-05-09T09:12:58.449Z,21.21
2023-05-09T09:13:58.400Z,21.27
2023-05-09T09:14:58.403Z,21.32
2023-05-09T09:15:58.471Z,21.39
2023-05-09T09:16:58.440Z,21.43
2023-05-09T09:17:58.436Z,21.55
2023-05-09T09:18:58.885Z,21.54
2023-05-09T09:19:58.424Z,21.62
2023-05-09T09:20:58.292Z,21.75
2023-05-09T09:21:58.298Z,21.79
2023-05-09T09:22:58.278Z,21.66
2023-05-09T09:24:01.288Z,21.54
2023-05-09T09:25:01.380Z,21.29
2023-05-09T09:25:59.733Z,21.30
2023-05-09T09:26:58.241Z,21.37
2023-05-09T09:27:58.280Z,21.48
2023-05-09T09:28:58.221Z,21.60
2023-05-09T09:29:58.205Z,21.64
2023-05-09T09:30:58.178Z,21.69
2023-05-09T09:31:58.178Z,21.77
2023-05-09T09:32:58.156Z,21.89
2023-05-09T09:33:58.164Z,21.98
2023-05-09T09:34:58.108Z,21.95
2023-05-09T09:35:58.148Z,22.06
2023-05-09T09:36:58.080Z,22.02
2023-05-09T09:37:59.918Z,21.96
2023-05-09T09:38:58.050Z,21.96
2023-05-09T09:39:58.094Z,21.83
2023-05-09T09:40:58.058Z,21.76
2023-05-09T09:41:58.013Z,21.73
2023-05-09T09:42:58.027Z,21.75
2023-05-09T09:44:00.981Z,21.89
2023-05-09T09:45:00.978Z,21.98
2023-05-09T09:45:58.050Z,22.10
2023-05-09T09:46:57.942Z,22.07
2023-05-09T09:47:58.002Z,22.22
2023-05-09T09:48:57.996Z,22.30
2023-05-09T09:49:57.891Z,22.43
2023-05-09T09:50:57.888Z,22.43
2023-05-09T09:51:57.876Z,22.41
2023-05-09T09:52:57.872Z,22.41
2023-05-09T09:53:57.927Z,22.20
2023-05-09T09:54:57.842Z,22.20
2023-05-09T09:55:57.838Z,22.25
2023-05-09T09:56:57.832Z,22.33
2023-05-09T09:57:57.791Z,22.38
2023-05-09T09:58:57.806Z,22.41
2023-05-09T09:59:57.819Z,22.48
2023-05-09T10:00:57.758Z,22.45
2023-05-09T10:01:57.734Z,22.50
2023-05-09T10:02:57.834Z,22.44
2023-05-09T10:04:00.819Z,22.47
2023-05-09T10:05:00.764Z,22.55
2023-05-09T10:05:57.682Z,22.65
2023-05-09T10:06:57.674Z,22.72
2023-05-09T10:07:57.658Z,22.80
2023-05-09T10:08:57.656Z,22.87
2023-05-09T10:09:57.621Z,22.88
2023-05-09T10:10:57.639Z,22.80
2023-05-09T10:11:57.612Z,22.83
2023-05-09T10:12:57.664Z,22.88
2023-05-09T10:13:57.577Z,22.99
2023-05-09T10:14:57.592Z,22.96
2023-05-09T10:15:57.730Z,22.93
2023-05-09T10:16:57.939Z,22.94
2023-05-09T10:17:57.714Z,22.99
2023-05-09T10:18:57.610Z,22.96
2023-05-09T10:19:57.497Z,22.98
2023-05-09T10:20:57.495Z,22.96
2023-05-09T10:21:57.505Z,22.98
2023-05-09T10:22:57.466Z,22.78
2023-05-09T10:24:00.439Z,22.73
2023-05-09T10:25:00.468Z,22.60
2023-05-09T10:25:57.476Z,22.60
2023-05-09T10:26:57.405Z,22.69
2023-05-09T10:27:57.398Z,22.51
2023-05-09T10:28:57.381Z,22.55
2023-05-09T10:29:57.373Z,22.65
2023-05-09T10:30:57.382Z,22.66
2023-05-09T10:31:57.373Z,22.76
2023-05-09T10:32:57.374Z,22.87
2023-05-09T10:33:57.354Z,22.90
2023-05-09T10:34:57.302Z,22.80
2023-05-09T10:35:57.328Z,22.75
2023-05-09T10:36:57.303Z,22.80
2023-05-09T10:37:57.302Z,22.91
2023-05-09T10:38:57.291Z,22.70
2023-05-09T10:39:57.555Z,22.78
2023-05-09T10:40:57.708Z,22.94
2023-05-09T10:41:57.291Z,23.08
2023-05-09T10:42:57.250Z,23.21
2023-05-09T10:44:00.208Z,23.21
2023-05-09T10:45:00.271Z,23.28
2023-05-09T10:45:57.157Z,23.44
2023-05-09T10:46:57.279Z,23.59
2023-05-09T10:47:57.163Z,23.69
2023-05-09T10:48:57.121Z,23.71
2023-05-09T10:49:57.115Z,23.68
2023-05-09T10:50:57.200Z,23.74
2023-05-09T10:51:57.132Z,23.81
2023-05-09T10:52:57.063Z,23.92
2023-05-09T10:53:57.095Z,23.99
2023-05-09T10:54:57.032Z,24.08
2023-05-09T10:55:57.042Z,24.05
2023-05-09T10:56:57.008Z,24.06
2023-05-09T10:57:56.993Z,24.05
2023-05-09T10:58:57.046Z,23.95
2023-05-09T10:59:56.974Z,23.65
2023-05-09T11:00:57.408Z,23.65
2023-05-09T11:01:57.050Z,23.66
2023-05-09T11:02:56.975Z,23.54
2023-05-09T11:04:00.038Z,23.59
2023-05-09T11:04:59.898Z,23.63
2023-05-09T11:05:56.880Z,23.69
2023-05-09T11:06:57.781Z,23.78
2023-05-09T11:07:56.857Z,23.73
2023-05-09T11:08:56.846Z,23.43
2023-05-09T11:09:56.852Z,23.39
2023-05-09T11:10:56.826Z,23.41
2023-05-09T11:11:56.802Z,23.47
2023-05-09T11:12:58.080Z,23.51
2023-05-09T11:13:56.768Z,23.62
2023-05-09T11:14:56.790Z,23.54
2023-05-09T11:15:56.761Z,23.51
2023-05-09T11:16:56.748Z,23.46
2023-05-09T11:17:56.726Z,23.43
2023-05-09T11:18:56.734Z,23.39
2023-05-09T11:19:56.727Z,23.31
2023-05-09T11:20:56.740Z,23.25
2023-05-09T11:21:56.653Z,23.41
2023-05-09T11:22:56.638Z,23.43
2023-05-09T11:23:59.629Z,23.44
2023-05-09T11:24:59.639Z,23.58
2023-05-09T11:25:56.636Z,23.56
2023-05-09T11:26:56.584Z,23.68
2023-05-09T11:27:56.568Z,23.78
2023-05-09T11:28:56.553Z,23.76
2023-05-09T11:29:56.573Z,23.73
2023-05-09T11:30:56.636Z,23.66
2023-05-09T11:31:56.591Z,23.63
2023-05-09T11:32:56.577Z,23.66
2023-05-09T11:33:56.518Z,23.76
2023-05-09T11:34:56.470Z,23.81
2023-05-09T11:35:56.488Z,23.86
2023-05-09T11:36:56.448Z,23.93
2023-05-09T11:37:56.436Z,23.99
2023-05-09T11:38:56.416Z,24.02
2023-05-09T11:39:56.413Z,23.99
2023-05-09T11:40:56.410Z,23.99
2023-05-09T11:41:56.370Z,23.84
2023-05-09T11:42:58.254Z,23.80
2023-05-09T11:43:59.353Z,23.95
2023-05-09T11:44:59.345Z,24.13
2023-05-09T11:45:56.364Z,24.21
2023-05-09T11:46:56.303Z,24.32
2023-05-09T11:47:56.342Z,24.50
2023-05-09T11:48:56.265Z,24.55
2023-05-09T11:49:56.278Z,24.69
2023-05-09T11:50:56.296Z,24.80
2023-05-09T11:51:56.223Z,24.73
2023-05-09T11:52:56.226Z,24.65
2023-05-09T11:53:56.198Z,24.51
2023-05-09T11:54:56.213Z,24.28
2023-05-09T11:55:56.166Z,24.33
2023-05-09T11:56:56.208Z,24.33
2023-05-09T11:57:56.461Z,24.36
2023-05-09T11:58:56.146Z,24.14
2023-05-09T11:59:56.173Z,24.20
2023-05-09T12:00:56.123Z,24.21
2023-05-09T12:01:56.103Z,24.39
2023-05-09T12:02:56.156Z,24.51
2023-05-09T12:03:59.277Z,24.77
2023-05-09T12:04:59.051Z,24.93
2023-05-09T12:05:56.023Z,25.10
2023-05-09T12:06:56.008Z,25.18
2023-05-09T12:07:56.046Z,25.26
2023-05-09T12:08:56.026Z,25.35
2023-05-09T12:09:55.974Z,25.18
2023-05-09T12:10:55.964Z,25.07
2023-05-09T12:11:55.945Z,24.85
2023-05-09T12:12:55.983Z,24.77
2023-05-09T12:13:55.916Z,24.91
2023-05-09T12:14:55.936Z,24.99
2023-05-09T12:15:55.934Z,25.06
2023-05-09T12:16:55.894Z,25.17
2023-05-09T12:17:55.898Z,25.28
2023-05-09T12:18:55.863Z,25.35
2023-05-09T12:19:55.835Z,25.41
2023-05-09T12:20:55.844Z,25.47
2023-05-09T12:21:55.804Z,25.48
2023-05-09T12:22:55.792Z,25.44
2023-05-09T12:23:58.836Z,25.23
2023-05-09T12:24:58.774Z,25.08
2023-05-09T12:25:55.792Z,24.93
2023-05-09T12:26:55.738Z,24.91
2023-05-09T12:27:55.721Z,24.80
2023-05-09T12:28:55.708Z,24.48
2023-05-09T12:29:55.713Z,24.40
2023-05-09T12:30:55.707Z,24.16
2023-05-09T12:31:55.669Z,24.14
2023-05-09T12:32:55.715Z,24.24
2023-05-09T12:33:55.638Z,24.36
2023-05-09T12:34:55.631Z,24.47
2023-05-09T12:35:55.604Z,24.51
2023-05-09T12:36:55.661Z,24.57
2023-05-09T12:37:55.585Z,24.57
2023-05-09T12:38:55.624Z,24.58
2023-05-09T12:39:55.553Z,24.48
2023-05-09T12:40:55.557Z,24.50
2023-05-09T12:42:01.582Z,24.50
2023-05-09T12:42:56.529Z,24.38
2023-05-09T12:43:58.566Z,24.24
2023-05-09T12:44:58.478Z,24.13
2023-05-09T12:45:55.472Z,23.98
2023-05-09T12:46:55.490Z,24.11
2023-05-09T12:47:55.507Z,24.35
2023-05-09T12:48:55.444Z,24.55
2023-05-09T12:49:56.111Z,24.76
2023-05-09T12:50:55.420Z,24.69
2023-05-09T12:51:55.390Z,24.77